createdAt,value
2017-09-15T00:00:02.681Z,9.44
2017-09-15T00:00:06.892Z,9.43
2017-09-15T00:00:11.099Z,9.43
2017-09-15T00:00:15.296Z,9.43
2017-09-15T00:00:19.243Z,9.44
2017-09-15T00:00:23.086Z,9.44
2017-09-15T00:00:27.035Z,9.44
2017-09-15T00:00:31.117Z,9.45
2017-09-15T00:00:35.198Z,9.44
2017-09-15T00:00:39.527Z,9.44
2017-09-15T00:00:43.615Z,9.44
2017-09-15T00:00:47.947Z,9.45
2017-09-15T00:00:52.171Z,9.44
2017-09-15T00:00:56.141Z,9.45
2017-09-15T00:01:00.354Z,9.45
2017-09-15T00:01:04.465Z,9.45
2017-09-15T00:01:08.915Z,9.45
2017-09-15T00:01:13.129Z,9.45
2017-09-15T00:01:17.231Z,9.46
2017-09-15T00:01:21.327Z,9.45
2017-09-15T00:01:25.415Z,9.46
2017-09-15T00:01:29.373Z,9.46
2017-09-15T00:01:33.576Z,9.45
2017-09-15T00:01:37.690Z,9.45
2017-09-15T00:01:41.908Z,9.44
2017-09-15T00:01:46.249Z,9.45
2017-09-15T00:01:50.334Z,9.45
2017-09-15T00:01:54.534Z,9.46
2017-09-15T00:01:58.743Z,9.45
2017-09-15T00:02:02.833Z,9.46
2017-09-15T00:02:06.787Z,9.45
2017-09-15T00:02:10.995Z,9.46
2017-09-15T00:02:15.220Z,9.46
2017-09-15T00:02:19.322Z,9.46
2017-09-15T00:02:23.652Z,9.46
2017-09-15T00:02:27.992Z,9.45
2017-09-15T00:02:32.079Z,9.45
2017-09-15T00:02:36.432Z,9.46
2017-09-15T00:02:40.770Z,9.46
2017-09-15T00:02:45.256Z,9.47
2017-09-15T00:02:49.334Z,9.46
2017-09-15T00:02:53.800Z,9.47
2017-09-15T00:02:58.008Z,9.48
2017-09-15T00:03:02.225Z,9.47
2017-09-15T00:03:06.193Z,9.47
2017-09-15T00:03:10.290Z,9.46
2017-09-15T00:03:14.756Z,9.47
2017-09-15T00:03:19.100Z,9.47
2017-09-15T00:03:23.184Z,9.47
2017-09-15T00:03:27.647Z,9.47
2017-09-15T00:03:31.737Z,9.48
2017-09-15T00:03:36.076Z,9.47
2017-09-15T00:03:40.301Z,9.47
2017-09-15T00:03:44.513Z,9.47
2017-09-15T00:03:48.976Z,9.48
2017-09-15T00:03:53.196Z,9.48
2017-09-15T00:03:57.403Z,9.48
2017-09-15T00:04:01.611Z,9.47
2017-09-15T00:04:05.575Z,9.48
2017-09-15T00:04:10.029Z,9.47
2017-09-15T00:04:14.247Z,9.48
2017-09-15T00:04:18.724Z,9.48
2017-09-15T00:04:22.563Z,9.47
2017-09-15T00:04:26.792Z,9.48
2017-09-15T00:04:31.009Z,9.48
2017-09-15T00:04:35.097Z,9.49
2017-09-15T00:04:39.180Z,9.49
2017-09-15T00:04:43.384Z,9.48
2017-09-15T00:04:47.710Z,9.48
2017-09-15T00:04:52.162Z,9.49
2017-09-15T00:04:56.124Z,9.49
2017-09-15T00:05:00.326Z,9.48
2017-09-15T00:05:04.589Z,9.49
2017-09-15T00:05:09.062Z,9.49
2017-09-15T00:05:13.413Z,9.49
2017-09-15T00:05:17.618Z,9.5
2017-09-15T00:05:21.693Z,9.49
2017-09-15T00:05:26.179Z,9.49
2017-09-15T00:05:30.138Z,9.5
2017-09-15T00:05:34.476Z,9.49
2017-09-15T00:05:38.572Z,9.5
2017-09-15T00:05:42.665Z,9.49
2017-09-15T00:05:46.631Z,9.49
2017-09-15T00:05:50.849Z,9.5
2017-09-15T00:05:54.815Z,9.49
2017-09-15T00:05:59.035Z,9.49
2017-09-15T00:06:03.100Z,9.49
2017-09-15T00:06:07.057Z,9.5
2017-09-15T00:06:11.268Z,9.5
2017-09-15T00:06:15.614Z,9.5
2017-09-15T00:06:19.704Z,9.5
2017-09-15T00:06:23.911Z,9.5
2017-09-15T00:06:28.250Z,9.5
2017-09-15T00:06:32.079Z,9.5
2017-09-15T00:06:36.170Z,9.5
2017-09-15T00:06:40.266Z,9.5
2017-09-15T00:06:44.366Z,9.49
2017-09-15T00:06:48.831Z,9.5
2017-09-15T00:06:52.910Z,9.5
2017-09-15T00:06:57.003Z,9.5
2017-09-15T00:07:01.092Z,9.5
2017-09-15T00:07:05.424Z,9.5
2017-09-15T00:07:09.893Z,9.5
2017-09-15T00:07:14.154Z,9.5
2017-09-15T00:07:18.239Z,9.5
2017-09-15T00:07:22.309Z,9.5
2017-09-15T00:07:26.649Z,9.5
2017-09-15T00:07:30.792Z,9.49
2017-09-15T00:07:34.988Z,9.5
2017-09-15T00:07:38.954Z,9.5
2017-09-15T00:07:43.047Z,9.5
2017-09-15T00:07:47.140Z,9.51
2017-09-15T00:07:51.464Z,9.5
2017-09-15T00:07:55.295Z,9.5
2017-09-15T00:07:59.260Z,9.5
2017-09-15T00:08:03.563Z,9.5
2017-09-15T00:08:07.774Z,9.51
2017-09-15T00:08:11.974Z,9.51
2017-09-15T00:08:16.059Z,9.51
2017-09-15T00:08:20.270Z,9.5
2017-09-15T00:08:24.225Z,9.5
2017-09-15T00:08:28.549Z,9.51
2017-09-15T00:08:32.643Z,9.51
2017-09-15T00:08:36.744Z,9.51
2017-09-15T00:08:40.821Z,9.51
2017-09-15T00:08:44.902Z,9.51
2017-09-15T00:08:49.133Z,9.51
2017-09-15T00:08:53.603Z,9.51
2017-09-15T00:08:57.820Z,9.51
2017-09-15T00:09:02.584Z,9.51
2017-09-15T00:09:06.936Z,9.51
2017-09-15T00:09:11.273Z,9.52
2017-09-15T00:09:15.382Z,9.51
2017-09-15T00:09:19.601Z,9.52
2017-09-15T00:09:23.563Z,9.52
2017-09-15T00:09:28.024Z,9.52
2017-09-15T00:09:31.997Z,9.52
2017-09-15T00:09:36.080Z,9.51
2017-09-15T00:09:40.399Z,9.53
2017-09-15T00:09:44.483Z,9.53
2017-09-15T00:09:48.570Z,9.52
2017-09-15T00:09:52.667Z,9.53
2017-09-15T00:09:57.004Z,9.53
2017-09-15T00:10:01.216Z,9.52
2017-09-15T00:10:05.432Z,9.53
2017-09-15T00:10:09.646Z,9.53
2017-09-15T00:10:13.864Z,9.53
2017-09-15T00:10:17.937Z,9.52
2017-09-15T00:10:22.024Z,9.53
2017-09-15T00:10:25.999Z,9.53
2017-09-15T00:10:30.216Z,9.54
2017-09-15T00:10:34.432Z,9.52
2017-09-15T00:10:38.396Z,9.54
2017-09-15T00:10:42.603Z,9.53
2017-09-15T00:10:46.559Z,9.54
2017-09-15T00:10:50.412Z,9.53
2017-09-15T00:10:54.388Z,9.54
2017-09-15T00:10:58.849Z,9.52
2017-09-15T00:11:02.951Z,9.54
2017-09-15T00:11:06.788Z,9.54
2017-09-15T00:11:10.891Z,9.55
2017-09-15T00:11:14.986Z,9.54
2017-09-15T00:11:18.957Z,9.54
2017-09-15T00:11:23.170Z,9.54
2017-09-15T00:11:27.257Z,9.54
2017-09-15T00:11:31.466Z,9.55
2017-09-15T00:11:35.669Z,9.55
2017-09-15T00:11:39.869Z,9.54
2017-09-15T00:11:43.965Z,9.54
2017-09-15T00:11:48.436Z,9.55
2017-09-15T00:11:52.625Z,9.55
2017-09-15T00:11:56.716Z,9.55
2017-09-15T00:12:00.924Z,9.55
2017-09-15T00:12:05.627Z,9.54
2017-09-15T00:12:09.462Z,9.54
2017-09-15T00:12:13.564Z,9.55
2017-09-15T00:12:17.786Z,9.54
2017-09-15T00:12:21.884Z,9.54
2017-09-15T00:12:25.848Z,9.56
2017-09-15T00:12:30.050Z,9.55
2017-09-15T00:12:34.269Z,9.55
2017-09-15T00:12:38.488Z,9.55
2017-09-15T00:12:42.687Z,9.55
2017-09-15T00:12:46.894Z,9.55
2017-09-15T00:12:50.837Z,9.55
2017-09-15T00:12:55.162Z,9.55
2017-09-15T00:12:59.101Z,9.54
2017-09-15T00:13:03.350Z,9.55
2017-09-15T00:13:07.317Z,9.55
2017-09-15T00:13:11.657Z,9.56
2017-09-15T00:13:15.629Z,9.55
2017-09-15T00:13:19.713Z,9.55
2017-09-15T00:13:23.929Z,9.56
2017-09-15T00:13:27.758Z,9.57
2017-09-15T00:13:32.234Z,9.56
2017-09-15T00:13:36.434Z,9.57
2017-09-15T00:13:40.641Z,9.57
2017-09-15T00:13:44.614Z,9.54
2017-09-15T00:13:48.805Z,9.56
2017-09-15T00:13:52.764Z,9.56
2017-09-15T00:13:56.608Z,9.57
2017-09-15T00:14:00.680Z,9.57
2017-09-15T00:14:04.811Z,9.56
2017-09-15T00:14:08.785Z,9.56
2017-09-15T00:14:12.870Z,9.57
2017-09-15T00:14:16.850Z,9.56
2017-09-15T00:14:21.307Z,9.56
2017-09-15T00:14:25.390Z,9.56
2017-09-15T00:14:29.595Z,9.56
2017-09-15T00:14:33.931Z,9.55
2017-09-15T00:14:38.026Z,9.56
2017-09-15T00:14:41.978Z,9.57
2017-09-15T00:14:46.208Z,9.57
2017-09-15T00:14:50.547Z,9.57
2017-09-15T00:14:54.760Z,9.57
2017-09-15T00:14:58.845Z,9.57
2017-09-15T00:15:03.370Z,9.56
2017-09-15T00:15:07.457Z,9.57
2017-09-15T00:15:11.551Z,9.57
2017-09-15T00:15:15.625Z,9.57
2017-09-15T00:15:19.698Z,9.57
2017-09-15T00:15:23.669Z,9.58
2017-09-15T00:15:27.892Z,9.56
2017-09-15T00:15:32.207Z,9.58
2017-09-15T00:15:36.417Z,9.56
2017-09-15T00:15:40.138Z,9.57
2017-09-15T00:15:44.227Z,9.57
2017-09-15T00:15:48.557Z,9.58
2017-09-15T00:15:52.891Z,9.56
2017-09-15T00:15:56.856Z,9.57
2017-09-15T00:16:00.814Z,9.57
2017-09-15T00:16:05.086Z,9.58
2017-09-15T00:16:09.038Z,9.56
2017-09-15T00:16:13.233Z,9.57
2017-09-15T00:16:17.922Z,9.57
2017-09-15T00:16:22.005Z,9.57
2017-09-15T00:16:25.965Z,9.58
2017-09-15T00:16:30.169Z,9.57
2017-09-15T00:16:34.605Z,9.58
2017-09-15T00:16:38.583Z,9.57
2017-09-15T00:16:42.552Z,9.58
2017-09-15T00:16:46.897Z,9.57
2017-09-15T00:16:50.982Z,9.58
2017-09-15T00:16:55.079Z,9.58
2017-09-15T00:16:59.171Z,9.58
2017-09-15T00:17:03.651Z,9.58
2017-09-15T00:17:07.997Z,9.57
2017-09-15T00:17:12.084Z,9.58
2017-09-15T00:17:16.158Z,9.58
2017-09-15T00:17:20.234Z,9.58
2017-09-15T00:17:24.572Z,9.58
2017-09-15T00:17:28.790Z,9.58
2017-09-15T00:17:32.868Z,9.58
2017-09-15T00:17:36.705Z,9.57
2017-09-15T00:17:40.921Z,9.58
2017-09-15T00:17:44.756Z,9.58
2017-09-15T00:17:48.983Z,9.58
2017-09-15T00:17:53.428Z,9.58
2017-09-15T00:17:57.398Z,9.59
2017-09-15T00:18:01.484Z,9.58
2017-09-15T00:18:05.564Z,9.58
2017-09-15T00:18:09.651Z,9.58
2017-09-15T00:18:13.853Z,9.59
2017-09-15T00:18:17.683Z,9.59
2017-09-15T00:18:21.897Z,9.58
2017-09-15T00:18:25.977Z,9.58
2017-09-15T00:18:30.059Z,9.59
2017-09-15T00:18:34.256Z,9.59
2017-09-15T00:18:38.353Z,9.59
2017-09-15T00:18:42.310Z,9.59
2017-09-15T00:18:46.391Z,9.59
2017-09-15T00:18:50.608Z,9.58
2017-09-15T00:18:54.807Z,9.59
2017-09-15T00:18:59.017Z,9.59
2017-09-15T00:19:02.853Z,9.59
2017-09-15T00:19:07.173Z,9.59
2017-09-15T00:19:11.504Z,9.59
2017-09-15T00:19:15.477Z,9.6
2017-09-15T00:19:19.705Z,9.59
2017-09-15T00:19:23.793Z,9.6
2017-09-15T00:19:27.884Z,9.59
2017-09-15T00:19:31.863Z,9.59
2017-09-15T00:19:36.340Z,9.59
2017-09-15T00:19:40.291Z,9.59
2017-09-15T00:19:44.250Z,9.6
2017-09-15T00:19:48.580Z,9.6
2017-09-15T00:19:52.678Z,9.6
2017-09-15T00:19:56.767Z,9.59
2017-09-15T00:20:00.839Z,9.6
2017-09-15T00:20:05.380Z,9.59
2017-09-15T00:20:09.588Z,9.6
2017-09-15T00:20:13.802Z,9.59
2017-09-15T00:20:18.003Z,9.6
2017-09-15T00:20:22.469Z,9.59
2017-09-15T00:20:26.698Z,9.6
2017-09-15T00:20:30.787Z,9.59
2017-09-15T00:20:34.859Z,9.6
2017-09-15T00:20:38.952Z,9.6
2017-09-15T00:20:42.666Z,9.61
2017-09-15T00:20:46.489Z,9.6
2017-09-15T00:20:50.698Z,9.6
2017-09-15T00:20:55.030Z,9.61
2017-09-15T00:20:59.249Z,9.61
2017-09-15T00:21:03.207Z,9.6
2017-09-15T00:21:07.177Z,9.6
2017-09-15T00:21:11.502Z,9.6
2017-09-15T00:21:15.895Z,9.61
2017-09-15T00:21:20.012Z,9.61
2017-09-15T00:21:24.228Z,9.61
2017-09-15T00:21:28.436Z,9.61
2017-09-15T00:21:32.527Z,9.6
2017-09-15T00:21:36.602Z,9.61
2017-09-15T00:21:40.701Z,9.61
2017-09-15T00:21:44.777Z,9.61
2017-09-15T00:21:48.736Z,9.6
2017-09-15T00:21:52.829Z,9.61
2017-09-15T00:21:56.799Z,9.62
2017-09-15T00:22:01.018Z,9.6
2017-09-15T00:22:04.972Z,9.61
2017-09-15T00:22:09.176Z,9.61
2017-09-15T00:22:13.254Z,9.62
2017-09-15T00:22:17.340Z,9.61
2017-09-15T00:22:21.548Z,9.62
2017-09-15T00:22:25.878Z,9.61
2017-09-15T00:22:29.962Z,9.62
2017-09-15T00:22:34.035Z,9.62
2017-09-15T00:22:38.385Z,9.62
2017-09-15T00:22:42.594Z,9.62
2017-09-15T00:22:46.950Z,9.62
2017-09-15T00:22:50.906Z,9.61
2017-09-15T00:22:54.987Z,9.62
2017-09-15T00:22:58.825Z,9.62
2017-09-15T00:23:03.466Z,9.62
2017-09-15T00:23:07.804Z,9.62
2017-09-15T00:23:11.756Z,9.62
2017-09-15T00:23:15.716Z,9.62
2017-09-15T00:23:19.918Z,9.63
2017-09-15T00:23:23.864Z,9.63
2017-09-15T00:23:28.212Z,9.63
2017-09-15T00:23:32.435Z,9.62
2017-09-15T00:23:36.779Z,9.63
2017-09-15T00:23:40.993Z,9.62
2017-09-15T00:23:44.940Z,9.63
2017-09-15T00:23:49.265Z,9.63
2017-09-15T00:23:53.120Z,9.63
2017-09-15T00:23:57.189Z,9.63
2017-09-15T00:24:01.029Z,9.63
2017-09-15T00:24:05.308Z,9.63
2017-09-15T00:24:09.650Z,9.63
2017-09-15T00:24:13.749Z,9.63
2017-09-15T00:24:17.971Z,9.64
2017-09-15T00:24:22.046Z,9.64
2017-09-15T00:24:26.042Z,9.64
2017-09-15T00:24:30.143Z,9.64
2017-09-15T00:24:34.118Z,9.64
2017-09-15T00:24:38.196Z,9.65
2017-09-15T00:24:42.414Z,9.64
2017-09-15T00:24:46.511Z,9.64
2017-09-15T00:24:50.720Z,9.65
2017-09-15T00:24:55.182Z,9.64
2017-09-15T00:24:59.127Z,9.64
2017-09-15T00:25:03.457Z,9.65
2017-09-15T00:25:07.556Z,9.65
2017-09-15T00:25:11.908Z,9.65
2017-09-15T00:25:16.146Z,9.65
2017-09-15T00:25:20.103Z,9.65
2017-09-15T00:25:24.314Z,9.65
2017-09-15T00:25:28.397Z,9.65
2017-09-15T00:25:32.368Z,9.65
2017-09-15T00:25:36.319Z,9.66
2017-09-15T00:25:40.519Z,9.65
2017-09-15T00:25:44.856Z,9.65
2017-09-15T00:25:48.934Z,9.65
2017-09-15T00:25:52.899Z,9.65
2017-09-15T00:25:57.099Z,9.65
2017-09-15T00:26:01.202Z,9.66
2017-09-15T00:26:05.420Z,9.65
2017-09-15T00:26:09.517Z,9.66
2017-09-15T00:26:13.856Z,9.66
2017-09-15T00:26:17.702Z,9.66
2017-09-15T00:26:22.031Z,9.65
2017-09-15T00:26:26.254Z,9.67
2017-09-15T00:26:30.589Z,9.67
2017-09-15T00:26:34.793Z,9.66
2017-09-15T00:26:38.756Z,9.67
2017-09-15T00:26:42.996Z,9.66
2017-09-15T00:26:47.220Z,9.67
2017-09-15T00:26:51.317Z,9.66
2017-09-15T00:26:55.404Z,9.67
2017-09-15T00:26:59.492Z,9.67
2017-09-15T00:27:03.702Z,9.67
2017-09-15T00:27:08.057Z,9.66
2017-09-15T00:27:12.261Z,9.67
2017-09-15T00:27:16.486Z,9.67
2017-09-15T00:27:20.455Z,9.66
2017-09-15T00:27:24.805Z,9.67
2017-09-15T00:27:28.895Z,9.66
2017-09-15T00:27:33.217Z,9.66
2017-09-15T00:27:37.307Z,9.66
2017-09-15T00:27:41.507Z,9.66
2017-09-15T00:27:45.592Z,9.66
2017-09-15T00:27:49.794Z,9.66
2017-09-15T00:27:53.891Z,9.66
2017-09-15T00:27:57.973Z,9.66
2017-09-15T00:28:02.057Z,9.65
2017-09-15T00:28:06.135Z,9.67
2017-09-15T00:28:10.103Z,9.67
2017-09-15T00:28:14.056Z,9.67
2017-09-15T00:28:18.249Z,9.66
2017-09-15T00:28:22.224Z,9.66
2017-09-15T00:28:26.318Z,9.66
2017-09-15T00:28:30.276Z,9.66
2017-09-15T00:28:34.491Z,9.67
2017-09-15T00:28:38.708Z,9.66
2017-09-15T00:28:42.923Z,9.66
2017-09-15T00:28:47.268Z,9.66
2017-09-15T00:28:51.228Z,9.66
2017-09-15T00:28:55.317Z,9.66
2017-09-15T00:28:59.169Z,9.66
2017-09-15T00:29:03.257Z,9.66
2017-09-15T00:29:07.590Z,9.66
2017-09-15T00:29:11.920Z,9.66
2017-09-15T00:29:15.886Z,9.66
2017-09-15T00:29:19.964Z,9.66
2017-09-15T00:29:24.058Z,9.67
2017-09-15T00:29:28.269Z,9.66
2017-09-15T00:29:32.220Z,9.66
2017-09-15T00:29:36.294Z,9.66
2017-09-15T00:29:40.764Z,9.65
2017-09-15T00:29:44.973Z,9.66
2017-09-15T00:29:48.934Z,9.65
2017-09-15T00:29:53.146Z,9.66
2017-09-15T00:29:57.114Z,9.66
2017-09-15T00:30:01.365Z,9.66
2017-09-15T00:30:05.755Z,9.67
2017-09-15T00:30:10.096Z,9.66
2017-09-15T00:30:14.302Z,9.66
2017-09-15T00:30:18.514Z,9.67
2017-09-15T00:30:22.466Z,9.66
2017-09-15T00:30:26.808Z,9.67
2017-09-15T00:30:31.020Z,9.66
2017-09-15T00:30:35.243Z,9.66
2017-09-15T00:30:39.193Z,9.67
2017-09-15T00:30:43.266Z,9.66
2017-09-15T00:30:47.613Z,9.66
2017-09-15T00:30:51.819Z,9.66
2017-09-15T00:30:56.038Z,9.66
2017-09-15T00:31:00.252Z,9.66
2017-09-15T00:31:04.230Z,9.65
2017-09-15T00:31:08.456Z,9.66
2017-09-15T00:31:12.656Z,9.66
2017-09-15T00:31:16.985Z,9.65
2017-09-15T00:31:21.309Z,9.66
2017-09-15T00:31:25.642Z,9.65
2017-09-15T00:31:29.975Z,9.65
2017-09-15T00:31:34.302Z,9.66
2017-09-15T00:31:38.526Z,9.66
2017-09-15T00:31:42.493Z,9.66
2017-09-15T00:31:46.697Z,9.65
2017-09-15T00:31:50.899Z,9.65
2017-09-15T00:31:55.111Z,9.65
2017-09-15T00:31:59.349Z,9.65
2017-09-15T00:32:03.564Z,9.65
2017-09-15T00:32:07.648Z,9.65
2017-09-15T00:32:11.871Z,9.64
2017-09-15T00:32:16.082Z,9.65
2017-09-15T00:32:20.294Z,9.65
2017-09-15T00:32:24.497Z,9.64
2017-09-15T00:32:28.706Z,9.63
2017-09-15T00:32:32.780Z,9.63
2017-09-15T00:32:36.746Z,9.64
2017-09-15T00:32:40.843Z,9.64
2017-09-15T00:32:44.800Z,9.64
2017-09-15T00:32:49.014Z,9.63
2017-09-15T00:32:52.965Z,9.63
2017-09-15T00:32:57.037Z,9.64
2017-09-15T00:33:01.362Z,9.63
2017-09-15T00:33:05.328Z,9.64
2017-09-15T00:33:09.409Z,9.63
2017-09-15T00:33:13.493Z,9.63
2017-09-15T00:33:17.955Z,9.64
2017-09-15T00:33:22.169Z,9.62
2017-09-15T00:33:26.127Z,9.63
2017-09-15T00:33:30.323Z,9.63
2017-09-15T00:33:34.794Z,9.63
2017-09-15T00:33:39.004Z,9.63
2017-09-15T00:33:43.212Z,9.64
2017-09-15T00:33:47.563Z,9.63
2017-09-15T00:33:51.644Z,9.63
2017-09-15T00:33:55.604Z,9.63
2017-09-15T00:33:59.560Z,9.64
2017-09-15T00:34:03.649Z,9.63
2017-09-15T00:34:07.871Z,9.63
2017-09-15T00:34:12.089Z,9.63
2017-09-15T00:34:16.298Z,9.63
2017-09-15T00:34:20.369Z,9.63
2017-09-15T00:34:24.449Z,9.63
2017-09-15T00:34:28.555Z,9.63
2017-09-15T00:34:32.793Z,9.63
2017-09-15T00:34:37.003Z,9.63
2017-09-15T00:34:41.348Z,9.63
2017-09-15T00:34:45.690Z,9.63
2017-09-15T00:34:49.673Z,9.62
2017-09-15T00:34:54.012Z,9.63
2017-09-15T00:34:57.983Z,9.63
2017-09-15T00:35:01.998Z,9.63
2017-09-15T00:35:05.966Z,9.63
2017-09-15T00:35:10.181Z,9.63
2017-09-15T00:35:14.003Z,9.63
2017-09-15T00:35:18.092Z,9.63
2017-09-15T00:35:22.427Z,9.63
2017-09-15T00:35:26.504Z,9.62
2017-09-15T00:35:30.454Z,9.63
2017-09-15T00:35:34.922Z,9.63
2017-09-15T00:35:39.260Z,9.63
2017-09-15T00:35:43.235Z,9.63
2017-09-15T00:35:47.584Z,9.63
2017-09-15T00:35:51.798Z,9.63
2017-09-15T00:35:56.004Z,9.63
2017-09-15T00:36:00.095Z,9.63
2017-09-15T00:36:04.597Z,9.62
2017-09-15T00:36:08.665Z,9.63
2017-09-15T00:36:12.878Z,9.63
2017-09-15T00:36:16.839Z,9.62
2017-09-15T00:36:21.048Z,9.62
2017-09-15T00:36:25.504Z,9.63
2017-09-15T00:36:29.585Z,9.62
2017-09-15T00:36:34.043Z,9.63
2017-09-15T00:36:38.377Z,9.63
2017-09-15T00:36:42.567Z,9.63
2017-09-15T00:36:46.917Z,9.64
2017-09-15T00:36:51.021Z,9.63
2017-09-15T00:36:55.109Z,9.63
2017-09-15T00:36:59.317Z,9.64
2017-09-15T00:37:03.468Z,9.63
2017-09-15T00:37:07.299Z,9.62
2017-09-15T00:37:11.517Z,9.63
2017-09-15T00:37:15.720Z,9.62
2017-09-15T00:37:19.680Z,9.62
2017-09-15T00:37:23.904Z,9.63
2017-09-15T00:37:28.411Z,9.63
2017-09-15T00:37:32.494Z,9.62
2017-09-15T00:37:36.451Z,9.61
2017-09-15T00:37:40.657Z,9.63
2017-09-15T00:37:44.995Z,9.63
2017-09-15T00:37:49.076Z,9.62
2017-09-15T00:37:53.041Z,9.62
2017-09-15T00:37:57.003Z,9.62
2017-09-15T00:38:01.117Z,9.63
2017-09-15T00:38:05.560Z,9.62
2017-09-15T00:38:09.645Z,9.62
2017-09-15T00:38:13.854Z,9.62
2017-09-15T00:38:17.939Z,9.62
2017-09-15T00:38:22.161Z,9.62
2017-09-15T00:38:26.240Z,9.62
2017-09-15T00:38:30.598Z,9.61
2017-09-15T00:38:34.801Z,9.62
2017-09-15T00:38:39.012Z,9.61
2017-09-15T00:38:42.966Z,9.61
2017-09-15T00:38:46.815Z,9.62
2017-09-15T00:38:50.901Z,9.6
2017-09-15T00:38:55.109Z,9.61
2017-09-15T00:38:59.317Z,9.61
2017-09-15T00:39:03.401Z,9.61
2017-09-15T00:39:07.756Z,9.61
2017-09-15T00:39:12.101Z,9.6
2017-09-15T00:39:16.307Z,9.61
2017-09-15T00:39:20.380Z,9.61
2017-09-15T00:39:24.577Z,9.6
2017-09-15T00:39:28.780Z,9.6
2017-09-15T00:39:32.982Z,9.6
2017-09-15T00:39:37.440Z,9.6
2017-09-15T00:39:41.771Z,9.6
2017-09-15T00:39:45.725Z,9.6
2017-09-15T00:39:49.825Z,9.59
2017-09-15T00:39:53.895Z,9.59
2017-09-15T00:39:58.104Z,9.6
2017-09-15T00:40:02.224Z,9.6
2017-09-15T00:40:06.332Z,9.59
2017-09-15T00:40:10.417Z,9.59
2017-09-15T00:40:14.627Z,9.59
2017-09-15T00:40:18.974Z,9.59
2017-09-15T00:40:23.059Z,9.59
2017-09-15T00:40:27.026Z,9.59
2017-09-15T00:40:31.477Z,9.58
2017-09-15T00:40:35.813Z,9.59
2017-09-15T00:40:39.782Z,9.58
2017-09-15T00:40:43.627Z,9.58
2017-09-15T00:40:47.834Z,9.58
2017-09-15T00:40:51.794Z,9.58
2017-09-15T00:40:56.143Z,9.58
2017-09-15T00:41:00.350Z,9.57
2017-09-15T00:41:04.569Z,9.57
2017-09-15T00:41:08.776Z,9.57
2017-09-15T00:41:12.864Z,9.57
2017-09-15T00:41:16.693Z,9.58
2017-09-15T00:41:21.023Z,9.57
2017-09-15T00:41:24.980Z,9.57
2017-09-15T00:41:29.069Z,9.57
2017-09-15T00:41:33.153Z,9.58
2017-09-15T00:41:37.223Z,9.57
2017-09-15T00:41:41.319Z,9.56
2017-09-15T00:41:45.413Z,9.56
2017-09-15T00:41:49.492Z,9.57
2017-09-15T00:41:53.704Z,9.57
2017-09-15T00:41:57.928Z,9.57
2017-09-15T00:42:01.890Z,9.57
2017-09-15T00:42:05.825Z,9.56
2017-09-15T00:42:09.925Z,9.56
2017-09-15T00:42:14.119Z,9.56
2017-09-15T00:42:18.340Z,9.55
2017-09-15T00:42:22.427Z,9.55
2017-09-15T00:42:26.880Z,9.55
2017-09-15T00:42:31.097Z,9.56
2017-09-15T00:42:35.428Z,9.56
2017-09-15T00:42:39.885Z,9.56
2017-09-15T00:42:43.839Z,9.56
2017-09-15T00:42:48.049Z,9.56
2017-09-15T00:42:52.265Z,9.56
2017-09-15T00:42:56.351Z,9.55
2017-09-15T00:43:00.430Z,9.55
2017-09-15T00:43:04.432Z,9.55
2017-09-15T00:43:08.645Z,9.55
2017-09-15T00:43:12.870Z,9.55
2017-09-15T00:43:17.196Z,9.56
2017-09-15T00:43:21.405Z,9.56
2017-09-15T00:43:25.502Z,9.55
2017-09-15T00:43:29.758Z,9.55
2017-09-15T00:43:33.964Z,9.55
2017-09-15T00:43:37.939Z,9.56
2017-09-15T00:43:42.036Z,9.56
2017-09-15T00:43:46.378Z,9.55
2017-09-15T00:43:50.832Z,9.55
2017-09-15T00:43:55.281Z,9.55
2017-09-15T00:43:59.627Z,9.55
2017-09-15T00:44:04.054Z,9.56
2017-09-15T00:44:08.142Z,9.54
2017-09-15T00:44:12.480Z,9.55
2017-09-15T00:44:16.700Z,9.54
2017-09-15T00:44:20.784Z,9.55
2017-09-15T00:44:25.003Z,9.54
2017-09-15T00:44:28.961Z,9.54
2017-09-15T00:44:33.167Z,9.55
2017-09-15T00:44:37.237Z,9.55
2017-09-15T00:44:41.695Z,9.54
2017-09-15T00:44:46.168Z,9.53
2017-09-15T00:44:50.260Z,9.53
2017-09-15T00:44:54.360Z,9.55
2017-09-15T00:44:58.687Z,9.54
2017-09-15T00:45:03.152Z,9.54
2017-09-15T00:45:07.249Z,9.54
2017-09-15T00:45:11.455Z,9.53
2017-09-15T00:45:15.530Z,9.54
2017-09-15T00:45:19.607Z,9.53
2017-09-15T00:45:23.697Z,9.53
2017-09-15T00:45:28.030Z,9.54
2017-09-15T00:45:31.978Z,9.53
2017-09-15T00:45:36.190Z,9.53
2017-09-15T00:45:40.400Z,9.54
2017-09-15T00:45:44.361Z,9.53
2017-09-15T00:45:48.572Z,9.53
2017-09-15T00:45:52.823Z,9.52
2017-09-15T00:45:57.029Z,9.53
2017-09-15T00:46:00.978Z,9.53
2017-09-15T00:46:05.193Z,9.53
2017-09-15T00:46:09.414Z,9.53
2017-09-15T00:46:13.513Z,9.53
2017-09-15T00:46:17.715Z,9.52
2017-09-15T00:46:22.124Z,9.53
2017-09-15T00:46:26.230Z,9.52
2017-09-15T00:46:30.573Z,9.52
2017-09-15T00:46:34.651Z,9.52
2017-09-15T00:46:38.733Z,9.52
2017-09-15T00:46:43.204Z,9.51
2017-09-15T00:46:47.404Z,9.52
2017-09-15T00:46:51.484Z,9.51
2017-09-15T00:46:55.692Z,9.51
2017-09-15T00:46:59.789Z,9.52
2017-09-15T00:47:03.840Z,9.51
2017-09-15T00:47:07.809Z,9.51
2017-09-15T00:47:12.015Z,9.5
2017-09-15T00:47:15.988Z,9.51
2017-09-15T00:47:20.323Z,9.5
2017-09-15T00:47:24.778Z,9.51
2017-09-15T00:47:28.740Z,9.5
2017-09-15T00:47:32.821Z,9.51
2017-09-15T00:47:36.907Z,9.51
2017-09-15T00:47:41.234Z,9.51
2017-09-15T00:47:45.176Z,9.51
2017-09-15T00:47:49.395Z,9.51
2017-09-15T00:47:53.597Z,9.5
2017-09-15T00:47:57.920Z,9.51
2017-09-15T00:48:02.189Z,9.51
2017-09-15T00:48:06.524Z,9.5
2017-09-15T00:48:10.739Z,9.5
2017-09-15T00:48:14.718Z,9.5
2017-09-15T00:48:18.798Z,9.5
2017-09-15T00:48:23.026Z,9.5
2017-09-15T00:48:27.507Z,9.51
2017-09-15T00:48:31.848Z,9.5
2017-09-15T00:48:36.077Z,9.51
2017-09-15T00:48:40.168Z,9.51
2017-09-15T00:48:44.005Z,9.51
2017-09-15T00:48:48.346Z,9.51
2017-09-15T00:48:52.185Z,9.51
2017-09-15T00:48:56.529Z,9.51
2017-09-15T00:49:00.486Z,9.51
2017-09-15T00:49:04.782Z,9.52
2017-09-15T00:49:08.742Z,9.51
2017-09-15T00:49:12.950Z,9.5
2017-09-15T00:49:16.922Z,9.51
2017-09-15T00:49:21.290Z,9.51
2017-09-15T00:49:25.371Z,9.51
2017-09-15T00:49:29.585Z,9.51
2017-09-15T00:49:33.281Z,9.51
2017-09-15T00:49:37.356Z,9.51
2017-09-15T00:49:41.436Z,9.52
2017-09-15T00:49:45.636Z,9.52
2017-09-15T00:49:49.714Z,9.52
2017-09-15T00:49:53.655Z,9.51
2017-09-15T00:49:57.612Z,9.52
2017-09-15T00:50:01.696Z,9.52
2017-09-15T00:50:06.024Z,9.51
2017-09-15T00:50:10.379Z,9.52
2017-09-15T00:50:14.483Z,9.52
2017-09-15T00:50:18.822Z,9.52
2017-09-15T00:50:22.796Z,9.52
2017-09-15T00:50:27.144Z,9.52
2017-09-15T00:50:31.112Z,9.52
2017-09-15T00:50:35.078Z,9.52
2017-09-15T00:50:39.026Z,9.52
2017-09-15T00:50:43.120Z,9.52
2017-09-15T00:50:47.215Z,9.52
2017-09-15T00:50:51.170Z,9.51
2017-09-15T00:50:55.246Z,9.52
2017-09-15T00:50:59.204Z,9.52
2017-09-15T00:51:03.391Z,9.52
2017-09-15T00:51:07.482Z,9.52
2017-09-15T00:51:11.309Z,9.52
2017-09-15T00:51:15.522Z,9.52
2017-09-15T00:51:19.736Z,9.52
2017-09-15T00:51:24.056Z,9.52
2017-09-15T00:51:28.266Z,9.52
2017-09-15T00:51:32.480Z,9.52
2017-09-15T00:51:36.689Z,9.52
2017-09-15T00:51:40.774Z,9.52
2017-09-15T00:51:44.844Z,9.51
2017-09-15T00:51:49.041Z,9.52
2017-09-15T00:51:53.145Z,9.51
2017-09-15T00:51:56.971Z,9.52
2017-09-15T00:52:01.073Z,9.51
2017-09-15T00:52:05.039Z,9.51
2017-09-15T00:52:08.996Z,9.52
2017-09-15T00:52:12.990Z,9.51
2017-09-15T00:52:17.217Z,9.51
2017-09-15T00:52:21.163Z,9.51
2017-09-15T00:52:25.397Z,9.52
2017-09-15T00:52:29.600Z,9.51
2017-09-15T00:52:33.682Z,9.52
2017-09-15T00:52:38.030Z,9.51
2017-09-15T00:52:42.126Z,9.51
2017-09-15T00:52:46.219Z,9.51
2017-09-15T00:52:50.426Z,9.5
2017-09-15T00:52:54.775Z,9.51
2017-09-15T00:52:58.489Z,9.51
2017-09-15T00:53:02.912Z,9.51
2017-09-15T00:53:06.873Z,9.51
2017-09-15T00:53:11.082Z,9.51
2017-09-15T00:53:15.049Z,9.5
2017-09-15T00:53:19.502Z,9.5
2017-09-15T00:53:23.832Z,9.51
2017-09-15T00:53:27.799Z,9.51
2017-09-15T00:53:32.132Z,9.5
2017-09-15T00:53:36.221Z,9.5
2017-09-15T00:53:40.668Z,9.49
2017-09-15T00:53:45.000Z,9.49
2017-09-15T00:53:49.211Z,9.49
2017-09-15T00:53:53.178Z,9.5
2017-09-15T00:53:57.399Z,9.49
2017-09-15T00:54:01.359Z,9.49
2017-09-15T00:54:05.564Z,9.49
2017-09-15T00:54:09.786Z,9.49
2017-09-15T00:54:13.614Z,9.5
2017-09-15T00:54:17.834Z,9.5
2017-09-15T00:54:22.035Z,9.49
2017-09-15T00:54:26.251Z,9.49
2017-09-15T00:54:30.714Z,9.49
2017-09-15T00:54:34.796Z,9.49
2017-09-15T00:54:38.761Z,9.48
2017-09-15T00:54:42.967Z,9.49
2017-09-15T00:54:46.936Z,9.49
2017-09-15T00:54:50.897Z,9.48
2017-09-15T00:54:55.108Z,9.48
2017-09-15T00:54:59.342Z,9.48
2017-09-15T00:55:03.556Z,9.48
2017-09-15T00:55:07.647Z,9.48
2017-09-15T00:55:11.865Z,9.48
2017-09-15T00:55:15.955Z,9.47
2017-09-15T00:55:19.920Z,9.48
2017-09-15T00:55:24.246Z,9.47
2017-09-15T00:55:28.311Z,9.48
2017-09-15T00:55:32.781Z,9.47